sensor_id;sensor_type;location;lat;lon;timestamp;pressure;altitude;pressure_sealevel;temperature;humidity
73501;BME280;61721;42.206;25.320;2023-06-19T00:01:27;99311.34;;;20.76;67.26
73501;BME280;61721;42.206;25.320;2023-06-19T00:04:02;99314.88;;;20.99;66.49
73501;BME280;61721;42.206;25.320;2023-06-19T00:06:39;99314.53;;;20.96;67.54
73501;BME280;61721;42.206;25.320;2023-06-19T00:09:17;99311.72;;;21.31;65.63
73501;BME280;61721;42.206;25.320;2023-06-19T00:12:01;99309.88;;;21.48;65.26
73501;BME280;61721;42.206;25.320;2023-06-19T00:14:37;99310.31;;;21.17;65.98
73501;BME280;61721;42.206;25.320;2023-06-19T00:17:13;99305.34;;;21.54;64.67
73501;BME280;61721;42.206;25.320;2023-06-19T00:19:48;99313.78;;;21.12;66.12
73501;BME280;61721;42.206;25.320;2023-06-19T00:22:26;99301.03;;;21.58;65.20
73501;BME280;61721;42.206;25.320;2023-06-19T00:25:05;99310.97;;;21.47;65.48
73501;BME280;61721;42.206;25.320;2023-06-19T00:27:42;99304.13;;;21.61;64.86
73501;BME280;61721;42.206;25.320;2023-06-19T00:30:17;99303.88;;;21.63;65.02
73501;BME280;61721;42.206;25.320;2023-06-19T00:32:54;99309.66;;;21.50;64.97
73501;BME280;61721;42.206;25.320;2023-06-19T00:35:33;99309.44;;;21.68;64.84
73501;BME280;61721;42.206;25.320;2023-06-19T00:38:10;99319.81;;;21.66;64.56
73501;BME280;61721;42.206;25.320;2023-06-19T00:40:48;99315.19;;;21.26;65.86
73501;BME280;61721;42.206;25.320;2023-06-19T00:43:24;99315.44;;;21.25;66.09
73501;BME280;61721;42.206;25.320;2023-06-19T00:46:00;99324.56;;;20.79;67.39
73501;BME280;61721;42.206;25.320;2023-06-19T00:48:36;99320.28;;;20.71;68.03
73501;BME280;61721;42.206;25.320;2023-06-19T00:51:11;99327.69;;;21.11;66.43
73501;BME280;61721;42.206;25.320;2023-06-19T00:53:48;99323.22;;;20.93;67.41
73501;BME280;61721;42.206;25.320;2023-06-19T00:56:27;99326.44;;;20.90;67.11
73501;BME280;61721;42.206;25.320;2023-06-19T00:59:06;99326.31;;;20.96;67.33
73501;BME280;61721;42.206;25.320;2023-06-19T01:01:44;99334.09;;;20.64;68.30
73501;BME280;61721;42.206;25.320;2023-06-19T01:04:20;99326.81;;;20.58;68.74
73501;BME280;61721;42.206;25.320;2023-06-19T01:07:09;99327.06;;;20.68;68.49
73501;BME280;61721;42.206;25.320;2023-06-19T01:09:51;99335.28;;;20.68;68.71
73501;BME280;61721;42.206;25.320;2023-06-19T01:12:33;99328.38;;;20.66;68.50
73501;BME280;61721;42.206;25.320;2023-06-19T01:15:11;99334.72;;;21.06;67.12
73501;BME280;61721;42.206;25.320;2023-06-19T01:17:49;99332.31;;;21.33;66.15
73501;BME280;61721;42.206;25.320;2023-06-19T01:20:25;99332.47;;;21.03;66.89
73501;BME280;61721;42.206;25.320;2023-06-19T01:23:07;99335.47;;;20.90;67.31
73501;BME280;61721;42.206;25.320;2023-06-19T01:25:44;99337.84;;;21.22;66.36
73501;BME280;61721;42.206;25.320;2023-06-19T01:28:19;99332.03;;;20.83;67.10
73501;BME280;61721;42.206;25.320;2023-06-19T01:30:58;99339.81;;;21.38;65.65
73501;BME280;61721;42.206;25.320;2023-06-19T01:33:37;99337.38;;;21.01;66.38
73501;BME280;61721;42.206;25.320;2023-06-19T01:36:14;99331.34;;;20.64;68.09
73501;BME280;61721;42.206;25.320;2023-06-19T01:38:55;99331.75;;;21.31;66.06
73501;BME280;61721;42.206;25.320;2023-06-19T01:41:32;99335.78;;;21.29;65.58
73501;BME280;61721;42.206;25.320;2023-06-19T01:44:10;99326.56;;;20.83;67.02
73501;BME280;61721;42.206;25.320;2023-06-19T01:46:47;99334.25;;;20.28;68.39
73501;BME280;61721;42.206;25.320;2023-06-19T01:49:24;99333.97;;;20.06;69.38
73501;BME280;61721;42.206;25.320;2023-06-19T01:52:00;99328.03;;;20.74;67.44
73501;BME280;61721;42.206;25.320;2023-06-19T01:54:38;99335.38;;;20.38;68.21
73501;BME280;61721;42.206;25.320;2023-06-19T01:57:14;99326.66;;;21.00;66.30
73501;BME280;61721;42.206;25.320;2023-06-19T01:59:50;99338.28;;;21.30;65.17
73501;BME280;61721;42.206;25.320;2023-06-19T02:02:26;99336.13;;;21.21;65.14
73501;BME280;61721;42.206;25.320;2023-06-19T02:05:01;99343.28;;;21.33;65.28
73501;BME280;61721;42.206;25.320;2023-06-19T02:07:37;99337.59;;;21.00;65.97
73501;BME280;61721;42.206;25.320;2023-06-19T02:10:23;99344.72;;;21.13;65.77
73501;BME280;61721;42.206;25.320;2023-06-19T02:12:59;99347.09;;;21.32;65.16
73501;BME280;61721;42.206;25.320;2023-06-19T02:15:34;99344.72;;;21.13;65.55
73501;BME280;61721;42.206;25.320;2023-06-19T02:18:11;99339.84;;;21.15;65.58
73501;BME280;61721;42.206;25.320;2023-06-19T02:20:46;99346.63;;;21.24;64.91
73501;BME280;61721;42.206;25.320;2023-06-19T02:23:25;99349.47;;;21.17;64.96
73501;BME280;61721;42.206;25.320;2023-06-19T02:26:03;99343.66;;;21.14;64.83
73501;BME280;61721;42.206;25.320;2023-06-19T02:28:40;99344.50;;;21.02;66.08
73501;BME280;61721;42.206;25.320;2023-06-19T02:31:16;99349.59;;;21.34;64.87
73501;BME280;61721;42.206;25.320;2023-06-19T02:33:52;99355.31;;;21.21;65.33
73501;BME280;61721;42.206;25.320;2023-06-19T02:36:28;99357.44;;;21.19;64.94
73501;BME280;61721;42.206;25.320;2023-06-19T02:39:04;99358.91;;;21.10;65.50
73501;BME280;61721;42.206;25.320;2023-06-19T02:41:43;99363.09;;;20.89;66.03
73501;BME280;61721;42.206;25.320;2023-06-19T02:44:20;99355.81;;;20.94;66.14
73501;BME280;61721;42.206;25.320;2023-06-19T02:46:55;99372.25;;;20.94;65.83
73501;BME280;61721;42.206;25.320;2023-06-19T02:49:32;99372.94;;;21.01;65.53
73501;BME280;61721;42.206;25.320;2023-06-19T02:52:08;99372.00;;;21.07;65.47
73501;BME280;61721;42.206;25.320;2023-06-19T02:54:44;99379.38;;;20.95;66.10
73501;BME280;61721;42.206;25.320;2023-06-19T02:57:22;99384.97;;;21.00;65.08
73501;BME280;61721;42.206;25.320;2023-06-19T02:59:59;99383.78;;;20.96;65.28
73501;BME280;61721;42.206;25.320;2023-06-19T03:02:36;99380.09;;;20.91;65.16
73501;BME280;61721;42.206;25.320;2023-06-19T03:05:16;99380.91;;;21.15;64.06
73501;BME280;61721;42.206;25.320;2023-06-19T03:07:59;99375.31;;;21.10;64.07
73501;BME280;61721;42.206;25.320;2023-06-19T03:10:36;99374.28;;;20.87;64.72
73501;BME280;61721;42.206;25.320;2023-06-19T03:13:16;99373.88;;;21.19;64.24
73501;BME280;61721;42.206;25.320;2023-06-19T03:15:52;99373.44;;;20.98;64.47
73501;BME280;61721;42.206;25.320;2023-06-19T03:18:27;99373.66;;;21.08;63.96
73501;BME280;61721;42.206;25.320;2023-06-19T03:21:04;99370.91;;;21.08;64.25
73501;BME280;61721;42.206;25.320;2023-06-19T03:23:39;99367.59;;;21.06;64.19
73501;BME280;61721;42.206;25.320;2023-06-19T03:26:16;99366.88;;;21.11;63.93
73501;BME280;61721;42.206;25.320;2023-06-19T03:28:54;99366.66;;;20.89;64.51
73501;BME280;61721;42.206;25.320;2023-06-19T03:31:30;99372.75;;;20.68;65.60
73501;BME280;61721;42.206;25.320;2023-06-19T03:34:11;99370.16;;;20.31;66.42
73501;BME280;61721;42.206;25.320;2023-06-19T03:36:47;99375.69;;;20.43;66.55
73501;BME280;61721;42.206;25.320;2023-06-19T03:39:23;99373.94;;;20.72;65.36
73501;BME280;61721;42.206;25.320;2023-06-19T03:42:00;99374.66;;;20.79;64.46
73501;BME280;61721;42.206;25.320;2023-06-19T03:44:41;99382.84;;;20.67;64.93
73501;BME280;61721;42.206;25.320;2023-06-19T03:47:18;99387.38;;;20.73;65.39
73501;BME280;61721;42.206;25.320;2023-06-19T03:49:53;99387.28;;;20.80;64.79
73501;BME280;61721;42.206;25.320;2023-06-19T03:52:29;99388.22;;;20.74;65.09
73501;BME280;61721;42.206;25.320;2023-06-19T03:55:06;99392.47;;;20.82;64.95
73501;BME280;61721;42.206;25.320;2023-06-19T03:57:42;99394.28;;;20.76;64.98
73501;BME280;61721;42.206;25.320;2023-06-19T04:00:21;99398.91;;;20.99;64.24
73501;BME280;61721;42.206;25.320;2023-06-19T04:02:57;99399.13;;;20.97;64.77
73501;BME280;61721;42.206;25.320;2023-06-19T04:05:33;99400.94;;;20.92;64.77
73501;BME280;61721;42.206;25.320;2023-06-19T04:08:09;99399.13;;;20.97;64.47
73501;BME280;61721;42.206;25.320;2023-06-19T04:10:45;99398.06;;;21.10;63.93
73501;BME280;61721;42.206;25.320;2023-06-19T04:13:21;99398.06;;;20.98;64.13
73501;BME280;61721;42.206;25.320;2023-06-19T04:16:00;99401.03;;;20.85;64.53
73501;BME280;61721;42.206;25.320;2023-06-19T04:18:37;99396.53;;;20.67;65.36
73501;BME280;61721;42.206;25.320;2023-06-19T04:21:13;99398.34;;;20.73;65.25
73501;BME280;61721;42.206;25.320;2023-06-19T04:23:50;99390.28;;;20.37;66.36
73501;BME280;61721;42.206;25.320;2023-06-19T04:26:26;99397.06;;;20.34;66.86
73501;BME280;61721;42.206;25.320;2023-06-19T04:29:02;99391.41;;;20.48;66.84
73501;BME280;61721;42.206;25.320;2023-06-19T04:31:44;99391.28;;;20.89;65.08
73501;BME280;61721;42.206;25.320;2023-06-19T04:34:21;99396.16;;;20.52;66.79
73501;BME280;61721;42.206;25.320;2023-06-19T04:36:56;99386.69;;;20.78;66.33
73501;BME280;61721;42.206;25.320;2023-06-19T04:39:32;99385.34;;;20.69;65.82
73501;BME280;61721;42.206;25.320;2023-06-19T04:42:09;99385.94;;;20.59;66.20
73501;BME280;61721;42.206;25.320;2023-06-19T04:44:45;99387.50;;;20.55;66.41
73501;BME280;61721;42.206;25.320;2023-06-19T04:47:24;99382.25;;;20.54;66.99
73501;BME280;61721;42.206;25.320;2023-06-19T04:50:00;99384.66;;;20.73;65.81
73501;BME280;61721;42.206;25.320;2023-06-19T04:52:36;99387.13;;;20.98;65.21
73501;BME280;61721;42.206;25.320;2023-06-19T04:55:12;99386.53;;;20.85;65.34
73501;BME280;61721;42.206;25.320;2023-06-19T04:57:48;99385.56;;;21.02;64.87
73501;BME280;61721;42.206;25.320;2023-06-19T05:00:24;99392.25;;;20.60;66.11
73501;BME280;61721;42.206;25.320;2023-06-19T05:03:03;99385.69;;;20.84;66.00
73501;BME280;61721;42.206;25.320;2023-06-19T05:05:40;99387.94;;;20.87;65.48
73501;BME280;61721;42.206;25.320;2023-06-19T05:08:16;99396.16;;;21.34;65.12
73501;BME280;61721;42.206;25.320;2023-06-19T05:10:59;99401.75;;;21.39;64.78
73501;BME280;61721;42.206;25.320;2023-06-19T05:13:35;99400.16;;;21.55;63.48
73501;BME280;61721;42.206;25.320;2023-06-19T05:16:11;99400.91;;;21.38;63.78
73501;BME280;61721;42.206;25.320;2023-06-19T05:18:52;99402.25;;;21.76;62.94
73501;BME280;61721;42.206;25.320;2023-06-19T05:21:28;99397.81;;;21.35;63.04
73501;BME280;61721;42.206;25.320;2023-06-19T05:24:04;99392.47;;;21.28;63.84
73501;BME280;61721;42.206;25.320;2023-06-19T05:26:40;99394.69;;;21.55;64.03
73501;BME280;61721;42.206;25.320;2023-06-19T05:29:15;99401.69;;;21.62;63.15
73501;BME280;61721;42.206;25.320;2023-06-19T05:31:52;99399.38;;;22.11;62.18
73501;BME280;61721;42.206;25.320;2023-06-19T05:34:31;99407.81;;;22.21;61.74
73501;BME280;61721;42.206;25.320;2023-06-19T05:37:07;99401.41;;;22.32;61.66
73501;BME280;61721;42.206;25.320;2023-06-19T05:39:45;99412.50;;;22.38;61.78
73501;BME280;61721;42.206;25.320;2023-06-19T05:42:21;99412.16;;;22.34;61.58
73501;BME280;61721;42.206;25.320;2023-06-19T05:44:57;99414.03;;;22.17;61.57
73501;BME280;61721;42.206;25.320;2023-06-19T05:47:35;99412.66;;;22.31;61.08
73501;BME280;61721;42.206;25.320;2023-06-19T05:50:14;99413.81;;;22.35;60.31
73501;BME280;61721;42.206;25.320;2023-06-19T05:52:51;99410.94;;;22.58;60.42
73501;BME280;61721;42.206;25.320;2023-06-19T05:55:27;99417.75;;;22.56;60.37
73501;BME280;61721;42.206;25.320;2023-06-19T05:58:03;99415.75;;;22.51;59.77
73501;BME280;61721;42.206;25.320;2023-06-19T06:00:39;99414.66;;;22.52;59.45
73501;BME280;61721;42.206;25.320;2023-06-19T06:03:16;99414.75;;;23.08;58.65
73501;BME280;61721;42.206;25.320;2023-06-19T06:05:54;99417.84;;;22.78;59.32
73501;BME280;61721;42.206;25.320;2023-06-19T06:08:42;99413.44;;;22.93;58.50
73501;BME280;61721;42.206;25.320;2023-06-19T06:11:18;99418.75;;;23.17;58.26
73501;BME280;61721;42.206;25.320;2023-06-19T06:13:53;99416.09;;;22.72;58.83
73501;BME280;61721;42.206;25.320;2023-06-19T06:16:36;99420.59;;;23.11;57.96
73501;BME280;61721;42.206;25.320;2023-06-19T06:19:12;99425.66;;;23.03;57.80
73501;BME280;61721;42.206;25.320;2023-06-19T06:21:51;99418.94;;;22.93;57.84
73501;BME280;61721;42.206;25.320;2023-06-19T06:24:27;99427.56;;;23.19;58.06
73501;BME280;61721;42.206;25.320;2023-06-19T06:27:05;99421.38;;;23.28;57.58
73501;BME280;61721;42.206;25.320;2023-06-19T06:29:42;99420.97;;;23.58;58.16
73501;BME280;61721;42.206;25.320;2023-06-19T06:32:18;99421.19;;;23.35;57.43
73501;BME280;61721;42.206;25.320;2023-06-19T06:34:54;99422.78;;;23.53;56.89
73501;BME280;61721;42.206;25.320;2023-06-19T06:37:40;99426.03;;;23.67;56.97
73501;BME280;61721;42.206;25.320;2023-06-19T06:40:18;99426.72;;;23.79;56.09
73501;BME280;61721;42.206;25.320;2023-06-19T06:42:54;99426.66;;;24.22;55.70
73501;BME280;61721;42.206;25.320;2023-06-19T06:45:29;99432.78;;;24.03;55.46
73501;BME280;61721;42.206;25.320;2023-06-19T06:48:07;99427.00;;;24.04;55.23
73501;BME280;61721;42.206;25.320;2023-06-19T06:50:43;99424.22;;;23.77;55.71
73501;BME280;61721;42.206;25.320;2023-06-19T06:53:22;99434.44;;;24.04;55.88
73501;BME280;61721;42.206;25.320;2023-06-19T06:56:00;99430.69;;;24.37;54.00
73501;BME280;61721;42.206;25.320;2023-06-19T06:58:37;99422.63;;;24.57;53.09
73501;BME280;61721;42.206;25.320;2023-06-19T07:01:12;99426.69;;;24.81;54.65
73501;BME280;61721;42.206;25.320;2023-06-19T07:03:49;99424.75;;;24.50;54.30
73501;BME280;61721;42.206;25.320;2023-06-19T07:06:26;99415.59;;;25.03;54.47
73501;BME280;61721;42.206;25.320;2023-06-19T07:09:04;99425.97;;;24.96;53.68
73501;BME280;61721;42.206;25.320;2023-06-19T07:11:48;99422.09;;;25.29;53.32
73501;BME280;61721;42.206;25.320;2023-06-19T07:14:24;99419.25;;;24.50;53.96
73501;BME280;61721;42.206;25.320;2023-06-19T07:17:00;99419.00;;;24.83;53.67
73501;BME280;61721;42.206;25.320;2023-06-19T07:19:39;99416.50;;;24.82;53.77
73501;BME280;61721;42.206;25.320;2023-06-19T07:22:15;99410.38;;;25.07;51.91
73501;BME280;61721;42.206;25.320;2023-06-19T07:24:54;99411.19;;;25.49;51.70
73501;BME280;61721;42.206;25.320;2023-06-19T07:27:37;99418.91;;;25.52;50.90
73501;BME280;61721;42.206;25.320;2023-06-19T07:30:14;99418.88;;;26.00;51.24
73501;BME280;61721;42.206;25.320;2023-06-19T07:32:50;99423.47;;;25.79;49.85
73501;BME280;61721;42.206;25.320;2023-06-19T07:35:26;99418.88;;;26.00;50.23
73501;BME280;61721;42.206;25.320;2023-06-19T07:38:01;99415.25;;;25.94;48.60
73501;BME280;61721;42.206;25.320;2023-06-19T07:40:40;99416.94;;;26.00;48.85
73501;BME280;61721;42.206;25.320;2023-06-19T07:43:16;99415.56;;;26.13;47.36
73501;BME280;61721;42.206;25.320;2023-06-19T07:45:54;99417.47;;;26.07;48.16
73501;BME280;61721;42.206;25.320;2023-06-19T07:48:30;99412.75;;;26.03;48.41
73501;BME280;61721;42.206;25.320;2023-06-19T07:51:06;99423.63;;;26.35;48.61
73501;BME280;61721;42.206;25.320;2023-06-19T07:53:42;99421.97;;;26.39;47.44
73501;BME280;61721;42.206;25.320;2023-06-19T07:56:20;99422.84;;;26.60;47.31
73501;BME280;61721;42.206;25.320;2023-06-19T07:58:57;99416.13;;;26.30;46.22
73501;BME280;61721;42.206;25.320;2023-06-19T08:01:33;99418.97;;;26.81;46.35
73501;BME280;61721;42.206;25.320;2023-06-19T08:04:10;99421.47;;;26.67;46.69
73501;BME280;61721;42.206;25.320;2023-06-19T08:06:46;99422.56;;;26.56;45.88
73501;BME280;61721;42.206;25.320;2023-06-19T08:09:29;99428.63;;;26.63;45.61
73501;BME280;61721;42.206;25.320;2023-06-19T08:12:08;99425.31;;;26.81;46.07
73501;BME280;61721;42.206;25.320;2023-06-19T08:14:44;99421.94;;;26.29;45.61
73501;BME280;61721;42.206;25.320;2023-06-19T08:17:20;99420.91;;;26.75;44.30
73501;BME280;61721;42.206;25.320;2023-06-19T08:19:56;99432.50;;;26.77;44.07
73501;BME280;61721;42.206;25.320;2023-06-19T08:22:32;99431.97;;;26.91;43.31
73501;BME280;61721;42.206;25.320;2023-06-19T08:25:08;99428.38;;;26.90;42.26
73501;BME280;61721;42.206;25.320;2023-06-19T08:27:47;99433.06;;;27.15;43.50
73501;BME280;61721;42.206;25.320;2023-06-19T08:30:23;99434.97;;;27.40;42.01
73501;BME280;61721;42.206;25.320;2023-06-19T08:32:59;99437.44;;;27.36;41.18
73501;BME280;61721;42.206;25.320;2023-06-19T08:35:36;99432.50;;;27.23;42.02
73501;BME280;61721;42.206;25.320;2023-06-19T08:38:12;99434.66;;;27.41;41.18
73501;BME280;61721;42.206;25.320;2023-06-19T08:40:48;99438.53;;;27.51;41.19
73501;BME280;61721;42.206;25.320;2023-06-19T08:43:28;99443.22;;;27.65;40.47
73501;BME280;61721;42.206;25.320;2023-06-19T08:46:11;99444.06;;;27.61;40.02
73501;BME280;61721;42.206;25.320;2023-06-19T08:48:48;99442.19;;;28.10;39.36
73501;BME280;61721;42.206;25.320;2023-06-19T08:51:24;99439.09;;;27.47;39.87
73501;BME280;61721;42.206;25.320;2023-06-19T08:54:04;99447.47;;;28.07;39.38
73501;BME280;61721;42.206;25.320;2023-06-19T08:56:41;99449.38;;;28.11;39.79
73501;BME280;61721;42.206;25.320;2023-06-19T08:59:20;99437.34;;;27.82;40.38
73501;BME280;61721;42.206;25.320;2023-06-19T09:01:56;99440.78;;;28.13;40.00
73501;BME280;61721;42.206;25.320;2023-06-19T09:04:32;99435.34;;;28.47;38.67
73501;BME280;61721;42.206;25.320;2023-06-19T09:07:12;99438.13;;;28.47;38.19
73501;BME280;61721;42.206;25.320;2023-06-19T09:09:49;99441.13;;;28.51;37.92
73501;BME280;61721;42.206;25.320;2023-06-19T09:12:32;99428.41;;;28.00;38.17
73501;BME280;61721;42.206;25.320;2023-06-19T09:15:15;99430.44;;;27.74;38.75
73501;BME280;61721;42.206;25.320;2023-06-19T09:18:00;99428.72;;;27.89;38.07
73501;BME280;61721;42.206;25.320;2023-06-19T09:20:41;99425.66;;;28.44;37.71
73501;BME280;61721;42.206;25.320;2023-06-19T09:23:20;99423.44;;;27.92;36.71
73501;BME280;61721;42.206;25.320;2023-06-19T09:25:58;99427.78;;;28.58;38.31
73501;BME280;61721;42.206;25.320;2023-06-19T09:28:40;99420.56;;;28.23;38.31
73501;BME280;61721;42.206;25.320;2023-06-19T09:31:18;99423.72;;;28.45;38.42
73501;BME280;61721;42.206;25.320;2023-06-19T09:33:54;99420.72;;;28.70;38.36
73501;BME280;61721;42.206;25.320;2023-06-19T09:36:31;99417.97;;;29.04;37.56
73501;BME280;61721;42.206;25.320;2023-06-19T09:39:08;99414.81;;;29.45;37.59
73501;BME280;61721;42.206;25.320;2023-06-19T09:41:47;99408.84;;;29.57;36.41
73501;BME280;61721;42.206;25.320;2023-06-19T09:44:27;99410.97;;;29.12;37.49
73501;BME280;61721;42.206;25.320;2023-06-19T09:47:14;99409.56;;;29.15;37.65
73501;BME280;61721;42.206;25.320;2023-06-19T09:49:54;99407.81;;;28.95;36.70
73501;BME280;61721;42.206;25.320;2023-06-19T09:52:30;99400.88;;;29.21;37.85
73501;BME280;61721;42.206;25.320;2023-06-19T09:55:07;99395.94;;;29.18;36.99
73501;BME280;61721;42.206;25.320;2023-06-19T09:57:45;99400.50;;;29.04;36.32
73501;BME280;61721;42.206;25.320;2023-06-19T10:00:22;99399.59;;;29.37;36.98
73501;BME280;61721;42.206;25.320;2023-06-19T10:03:11;99395.31;;;29.74;34.91
73501;BME280;61721;42.206;25.320;2023-06-19T10:05:58;99393.84;;;29.58;35.59
73501;BME280;61721;42.206;25.320;2023-06-19T10:08:40;99392.16;;;30.04;35.85
73501;BME280;61721;42.206;25.320;2023-06-19T10:11:23;99391.91;;;29.58;35.24
73501;BME280;61721;42.206;25.320;2023-06-19T10:14:05;99393.56;;;28.72;35.70
73501;BME280;61721;42.206;25.320;2023-06-19T10:16:42;99386.78;;;29.18;36.32
73501;BME280;61721;42.206;25.320;2023-06-19T10:19:21;99380.25;;;29.80;35.00
73501;BME280;61721;42.206;25.320;2023-06-19T10:21:58;99374.97;;;29.79;34.68
73501;BME280;61721;42.206;25.320;2023-06-19T10:24:35;99384.06;;;30.27;33.96
73501;BME280;61721;42.206;25.320;2023-06-19T10:27:20;99378.78;;;30.44;33.56
73501;BME280;61721;42.206;25.320;2023-06-19T10:29:57;99369.75;;;30.52;33.75
73501;BME280;61721;42.206;25.320;2023-06-19T10:32:33;99376.09;;;29.30;36.18
73501;BME280;61721;42.206;25.320;2023-06-19T10:35:14;99371.97;;;29.75;35.51
73501;BME280;61721;42.206;25.320;2023-06-19T10:37:53;99363.81;;;29.12;36.22
73501;BME280;61721;42.206;25.320;2023-06-19T10:40:30;99369.41;;;29.60;35.23
73501;BME280;61721;42.206;25.320;2023-06-19T10:43:06;99363.78;;;30.08;35.59
73501;BME280;61721;42.206;25.320;2023-06-19T10:45:42;99372.56;;;30.33;34.95
73501;BME280;61721;42.206;25.320;2023-06-19T10:48:23;99363.75;;;30.45;34.19
73501;BME280;61721;42.206;25.320;2023-06-19T10:51:03;99355.72;;;30.62;34.22
73501;BME280;61721;42.206;25.320;2023-06-19T10:53:40;99355.03;;;30.52;34.15
73501;BME280;61721;42.206;25.320;2023-06-19T10:56:20;99359.16;;;30.73;34.22
73501;BME280;61721;42.206;25.320;2023-06-19T10:59:00;99358.59;;;30.20;33.19
73501;BME280;61721;42.206;25.320;2023-06-19T11:01:38;99360.44;;;30.62;33.41
73501;BME280;61721;42.206;25.320;2023-06-19T11:04:15;99361.22;;;30.30;33.27
73501;BME280;61721;42.206;25.320;2023-06-19T11:06:54;99362.25;;;30.34;33.09
73501;BME280;61721;42.206;25.320;2023-06-19T11:09:31;99356.31;;;30.41;33.75
73501;BME280;61721;42.206;25.320;2023-06-19T11:12:08;99358.75;;;30.80;32.81
73501;BME280;61721;42.206;25.320;2023-06-19T11:14:44;99357.34;;;30.96;32.80
73501;BME280;61721;42.206;25.320;2023-06-19T11:17:22;99361.91;;;31.33;33.28
73501;BME280;61721;42.206;25.320;2023-06-19T11:19:58;99365.34;;;30.84;37.38
73501;BME280;61721;42.206;25.320;2023-06-19T11:22:41;99351.09;;;31.45;37.55
73501;BME280;61721;42.206;25.320;2023-06-19T11:25:18;99356.53;;;30.95;38.01
73501;BME280;61721;42.206;25.320;2023-06-19T11:27:57;99354.59;;;30.63;37.76
73501;BME280;61721;42.206;25.320;2023-06-19T11:30:34;99349.41;;;30.38;37.70
73501;BME280;61721;42.206;25.320;2023-06-19T11:33:17;99343.53;;;29.64;38.72
73501;BME280;61721;42.206;25.320;2023-06-19T11:36:00;99345.41;;;29.69;38.85
73501;BME280;61721;42.206;25.320;2023-06-19T11:38:39;99350.09;;;30.30;37.50
73501;BME280;61721;42.206;25.320;2023-06-19T11:41:29;99347.50;;;30.20;37.08
73501;BME280;61721;42.206;25.320;2023-06-19T11:44:07;99355.38;;;30.13;37.28
73501;BME280;61721;42.206;25.320;2023-06-19T11:46:44;99344.56;;;30.30;37.50
73501;BME280;61721;42.206;25.320;2023-06-19T11:49:20;99344.13;;;30.74;37.85
73501;BME280;61721;42.206;25.320;2023-06-19T11:51:57;99345.88;;;30.51;39.14
73501;BME280;61721;42.206;25.320;2023-06-19T11:54:36;99344.72;;;30.01;39.87
73501;BME280;61721;42.206;25.320;2023-06-19T11:57:12;99339.09;;;30.06;40.73
73501;BME280;61721;42.206;25.320;2023-06-19T11:59:49;99330.56;;;29.79;38.81
73501;BME280;61721;42.206;25.320;2023-06-19T12:02:26;99327.81;;;30.35;38.90
73501;BME280;61721;42.206;25.320;2023-06-19T12:05:02;99326.41;;;30.70;39.79
73501;BME280;61721;42.206;25.320;2023-06-19T12:07:38;99325.94;;;30.12;39.77
73501;BME280;61721;42.206;25.320;2023-06-19T12:10:17;99307.75;;;30.38;39.16
73501;BME280;61721;42.206;25.320;2023-06-19T12:12:53;99312.56;;;30.32;38.07
73501;BME280;61721;42.206;25.320;2023-06-19T12:15:29;99306.19;;;30.32;36.94
73501;BME280;61721;42.206;25.320;2023-06-19T12:18:05;99307.25;;;30.17;38.62
73501;BME280;61721;42.206;25.320;2023-06-19T12:20:43;99309.22;;;30.49;38.04
73501;BME280;61721;42.206;25.320;2023-06-19T12:23:19;99303.06;;;30.52;37.59
73501;BME280;61721;42.206;25.320;2023-06-19T12:25:58;99296.28;;;30.26;38.76
73501;BME280;61721;42.206;25.320;2023-06-19T12:28:34;99300.47;;;30.88;37.85
73501;BME280;61721;42.206;25.320;2023-06-19T12:31:10;99302.41;;;30.42;37.68
73501;BME280;61721;42.206;25.320;2023-06-19T12:33:46;99302.19;;;30.38;37.54
73501;BME280;61721;42.206;25.320;2023-06-19T12:36:22;99306.75;;;30.48;37.50
73501;BME280;61721;42.206;25.320;2023-06-19T12:38:59;99306.97;;;30.51;38.97
73501;BME280;61721;42.206;25.320;2023-06-19T12:41:41;99304.84;;;30.62;37.78
73501;BME280;61721;42.206;25.320;2023-06-19T12:44:17;99301.78;;;30.45;37.37
73501;BME280;61721;42.206;25.320;2023-06-19T12:46:54;99301.47;;;30.65;37.16
73501;BME280;61721;42.206;25.320;2023-06-19T12:49:31;99296.75;;;30.14;38.23
73501;BME280;61721;42.206;25.320;2023-06-19T12:52:08;99287.50;;;30.19;38.66
73501;BME280;61721;42.206;25.320;2023-06-19T12:54:44;99293.06;;;30.51;37.50
73501;BME280;61721;42.206;25.320;2023-06-19T12:57:24;99289.78;;;30.49;37.07
73501;BME280;61721;42.206;25.320;2023-06-19T13:00:00;99283.38;;;30.81;37.36
73501;BME280;61721;42.206;25.320;2023-06-19T13:02:37;99285.72;;;30.60;36.66
73501;BME280;61721;42.206;25.320;2023-06-19T13:05:16;99287.00;;;31.09;36.37
73501;BME280;61721;42.206;25.320;2023-06-19T13:07:52;99280.44;;;30.26;35.63
73501;BME280;61721;42.206;25.320;2023-06-19T13:10:28;99280.97;;;29.91;37.14
73501;BME280;61721;42.206;25.320;2023-06-19T13:13:07;99287.16;;;30.39;37.67
73501;BME280;61721;42.206;25.320;2023-06-19T13:15:43;99274.75;;;30.18;37.76
73501;BME280;61721;42.206;25.320;2023-06-19T13:18:19;99267.63;;;30.12;38.37
73501;BME280;61721;42.206;25.320;2023-06-19T13:20:55;99278.28;;;30.23;38.01
73501;BME280;61721;42.206;25.320;2023-06-19T13:23:31;99285.91;;;30.31;38.81
73501;BME280;61721;42.206;25.320;2023-06-19T13:26:07;99284.06;;;30.08;38.97
73501;BME280;61721;42.206;25.320;2023-06-19T13:28:46;99286.13;;;30.35;38.76
73501;BME280;61721;42.206;25.320;2023-06-19T13:31:22;99277.09;;;30.43;38.47
73501;BME280;61721;42.206;25.320;2023-06-19T13:33:58;99272.44;;;30.06;38.05
73501;BME280;61721;42.206;25.320;2023-06-19T13:36:34;99276.41;;;30.00;37.74
73501;BME280;61721;42.206;25.320;2023-06-19T13:39:10;99283.91;;;29.81;37.12
73501;BME280;61721;42.206;25.320;2023-06-19T13:41:46;99282.19;;;29.85;36.96
73501;BME280;61721;42.206;25.320;2023-06-19T13:44:25;99270.84;;;30.19;37.09